Terminal Aerodrome Forecast
Issued by NWS

Home | Current Version | Previous Version | Graphics & Text | Print | Product List | Glossary Off
Versions: 1 2 3 4 5 6 7 8 9 10 11 12 13 14 15 16 17 18 19 20 21 22 23 24 25 26

746
FTUS42 KMHX 021302 AAA
TAFOAJ
TAF AMD
KOAJ 021302Z 0213/0312 22008KT 4SM BR OVC004
      TEMPO 0213/0214 6SM BR BKN010
     FM021400 22010KT P6SM BKN040
     FM021900 22011G18KT P6SM VCTS BKN040CB
     FM022300 19010KT P6SM BKN040
     FM030800 20007KT 6SM -SHRA SCT025 OVC040
      AMD LTD TO CLD VIS AND WIND=

USA.gov is the U.S. government's official web portal to all federal, state and local government web resources and services.